Estaciones Metar próximas

 

LELL - Sabadell, Spain
Distancia a la estación: E 18km
Actualizado: 27/05/2022 07:30
Despejado
Despejado
 Viento del calm
Viento: Calma
Temperatura: 16°C
Rocío: 11°C
Humedad: 72%
Barómetro: 1019 hPa
Resumen: Despejado
Visibilidad: greater than 10 km
2022/05/27 05:30 LELL 270530Z AUTO 00000KT CAVOK 16/11 Q1019
LEBL - Barcelona Airpor, Spain
Distancia a la estación: SSE 33km
Actualizado: 27/05/2022 07:30
Despejado
Despejado
 Viento del NNO
Viento: NNO 19 km/h, Racha: 41 km/h
Temperatura: 18°C
Rocío: 11°C
Humedad: 64%
Barómetro: 1018 hPa
Resumen: Despejado
Visibilidad: greater than 10 km
2022/05/27 05:30 LEBL 270530Z 33010G22KT 300V010 CAVOK 18/11 Q1018 NOSIG
LERS - Reus (civ/Mil), Spain
Distancia a la estación: SO 75km
Actualizado: 27/05/2022 07:30
Despejado
Despejado
 Viento del ONO
Viento: ONO 13 km/h
Temperatura: 17°C
Rocío: 12°C
Humedad: 73%
Barómetro: 1019 hPa
Resumen: Despejado
Visibilidad: greater than 10 km
2022/05/27 05:30 LERS 270530Z 30007KT 260V340 CAVOK 17/12 Q1019
 
LEGE - Gerona/Costa Bra, Spain
Distancia a la estación: ENE 83km
Actualizado: 27/05/2022 07:30
Despejado
Despejado
 Viento del NO
Viento: NO 4 km/h
Temperatura: 15°C
Rocío: 11°C
Humedad: 77%
Barómetro: 1019 hPa
Resumen: Despejado
Visibilidad: greater than 10 km
2022/05/27 05:30 LEGE 270530Z 32002KT CAVOK 15/11 Q1019
LFMP - Perpignan/Rivesa, France
Distancia a la estación: NNE 155km
Actualizado: 27/05/2022 07:30
Despejado
Despejado
 Viento del NO
Viento: NO 28 km/h
Temperatura: 18°C
Rocío: 10°C
Humedad: 60%
Barómetro: 1021 hPa
Resumen: Despejado
Visibilidad: greater than 10 km
2022/05/27 05:30 LFMP 270530Z AUTO 32015KT 290V350 CAVOK 18/10 Q1021 BECMG 32020G35KT
LFMK - Carcassonne/Salv, France
Distancia a la estación: N 191km
Actualizado: 27/05/2022 07:30
Muy nuboso
Muy nuboso
 Viento del O
Viento: O 15 km/h
Temperatura: 14°C
Rocío: 12°C
Humedad: 88%
Barómetro: 1025 hPa
Nubes: Muy nuboso
Visibilidad: 10 km
Detalle Nubes: Muy nuboso 1707 m
2022/05/27 05:30 LFMK 270530Z AUTO 27008KT 9999 BKN056 14/12 Q1025 TEMPO 27015G25KT BKN013
 
LEHC - Huesca-Pirineos, Spain
Distancia a la estación: ONO 193km
Actualizado: 27/05/2022 07:30
Despejado
Despejado
 Viento del O
Viento: O 11 km/h
Temperatura: 11°C
Rocío: 10°C
Humedad: 94%
Barómetro: 1022 hPa
Resumen: Despejado
Visibilidad: greater than 10 km
2022/05/27 05:30 LEHC 270530Z AUTO 28006KT 250V330 CAVOK 11/10 Q1022
LFMU - Beziers/Vias, France
Distancia a la estación: NNE 232km
Actualizado: 27/05/2022 07:30
Despejado
Despejado
 Viento del O
Viento: O 15 km/h
Temperatura: 17°C
Rocío: 11°C
Humedad: 68%
Resumen: Despejado
Visibilidad: greater than 10 km
2022/05/27 05:30 LFMU 270530Z AUTO 28008KT CAVOK 17/11 Q//// NOSIG
LEPA - Palma De Mallorc, Spain
Distancia a la estación: SSE 233km
Actualizado: 27/05/2022 07:30
Muy nuboso
Muy nuboso
 Viento del NNO
Viento: NNO 11 km/h, Racha: 30 km/h
Temperatura: 20°C
Rocío: 14°C
Humedad: 69%
Barómetro: 1018 hPa
Nubes: Muy nuboso
Visibilidad: 10 km
Detalle Nubes: Nubes dispersas 762 m
Muy nuboso 2103 m
2022/05/27 05:30 LEPA 270530Z 33006G16KT 270V010 9999 FEW025 BKN069 20/14 Q1018 NOSIG
 
LFBO - Toulouse/Blagnac, France
Distancia a la estación: N 236km
Actualizado: 27/05/2022 07:30
Parcialmente nuboso
Parcialmente nuboso
 Viento del O
Viento: O 13 km/h
Temperatura: 15°C
Rocío: 12°C
Humedad: 82%
Barómetro: 1025 hPa
Nubes: Parcialmente nuboso
Visibilidad: 10 km
Detalle Nubes: Nubes dispersas 1189 m
Parcialmente nuboso 1524 m
2022/05/27 05:30 LFBO 270530Z AUTO 27007KT 9999 FEW039 SCT050 15/12 Q1025 NOSIG
LFBT - Tarbes/Ossun, France
Distancia a la estación: NO 239km
Actualizado: 27/05/2022 07:30
Cubierto
Cubierto
 Viento del N
Viento: N 4 km/h
Temperatura: 14°C
Rocío: 13°C
Humedad: 94%
Barómetro: 1026 hPa
Nubes: Cubierto
Visibilidad: 10 km
Detalle Nubes: Muy nuboso 457 m
Muy nuboso 762 m
Cubierto 1067 m
2022/05/27 05:30 LFBT 270530Z AUTO 36002KT 9999 BKN015 BKN025 OVC035 14/13 Q1026 TEMPO BKN014
LEZG - Zaragoza (mil/Ci, Spain
Distancia a la estación: O 242km
Actualizado: 27/05/2022 07:30
Despejado
Despejado
 Viento del ONO
Viento: ONO 26 km/h
Temperatura: 16°C
Rocío: 10°C
Humedad: 68%
Barómetro: 1022 hPa
Resumen: Despejado
Visibilidad: greater than 10 km
2022/05/27 05:30 LEZG 270530Z 30014KT CAVOK 16/10 Q1022